Archival Weather

Chicago O'Hare International

Chicago, Illinois (KORD)

Report from: Friday, May 26, 2023 10:51 AM CDT
Current time: Tuesday, July 16, 2024 10:05 AM CDT

Current weather – Weather history – Daily summaries
Weather forecast

Temperature18.9°C (66.0°F)
Dew point1.1°C (34.0°F)
Winds 7 kts (3.6 m/s, 8.1 mph) East (100°)
Wind gusts 15 kts (7.7 m/s, 17.3 mph)
Visibility10 mi. (16.1 km)
Clouds Few clouds 30,000 ft. (9,144 m)
Altimeter30.36 in.Hg (1028 mB)
Relative humidity30 %
Density altitude63 ft. (19 m)
Sea-level pressure102.8 kPa (1028 mB, 30.36 in.Hg)
Remarks Automated weather observing station with precipitation discriminator
Flight conditions Visual Meteorological Conditions
Raw dataKORD 261551Z 10007G15KT 10SM FEW300 19/01 A3036 RMK AO2 SLP281 T01890011
An error has occurred. This application may no longer respond until reloaded. Reload 🗙